createdAt,value
2019-03-04T00:01:03.997Z,5.10
2019-03-04T00:03:33.591Z,5.60
2019-03-04T00:06:03.278Z,5.40
2019-03-04T00:08:33.037Z,4.90
2019-03-04T00:11:02.681Z,4.80
2019-03-04T00:13:32.347Z,5.40
2019-03-04T00:16:01.964Z,5.57
2019-03-04T00:18:31.622Z,3.70
2019-03-04T00:21:01.233Z,3.97
2019-03-04T00:23:30.820Z,3.70
2019-03-04T00:26:00.425Z,3.53
2019-03-04T00:28:30.033Z,3.17
2019-03-04T00:30:59.696Z,3.73
2019-03-04T00:33:29.312Z,4.20
2019-03-04T00:35:58.924Z,4.70
2019-03-04T00:38:28.506Z,3.30
2019-03-04T00:40:58.123Z,3.40
2019-03-04T00:43:27.733Z,4.47
2019-03-04T00:45:57.316Z,4.50
2019-03-04T00:48:26.931Z,4.03
2019-03-04T00:50:56.516Z,4.57
2019-03-04T00:53:26.210Z,4.43
2019-03-04T00:55:55.800Z,4.90
2019-03-04T00:58:25.393Z,4.27
2019-03-04T01:00:55.005Z,4.90
2019-03-04T01:03:24.664Z,4.27
2019-03-04T01:05:54.278Z,4.77
2019-03-04T01:08:23.936Z,4.57
2019-03-04T01:10:53.762Z,4.90
2019-03-04T01:13:24.586Z,4.17
2019-03-04T01:15:54.219Z,4.57
2019-03-04T01:18:23.803Z,4.97
2019-03-04T01:20:53.390Z,4.40
2019-03-04T01:23:23.007Z,4.67
2019-03-04T01:25:52.684Z,4.20
2019-03-04T01:28:22.274Z,4.97
2019-03-04T01:30:51.960Z,3.87
2019-03-04T01:33:21.551Z,4.20
2019-03-04T01:35:51.235Z,4.13
2019-03-04T01:38:20.817Z,4.27
2019-03-04T01:40:50.430Z,4.73
2019-03-04T01:43:20.016Z,4.67
2019-03-04T01:45:49.638Z,4.20
2019-03-04T01:48:19.390Z,3.87
2019-03-04T01:50:48.972Z,3.87
2019-03-04T01:53:18.584Z,4.33
2019-03-04T01:55:48.200Z,3.83
2019-03-04T01:58:17.809Z,4.10
2019-03-04T02:00:47.414Z,3.87
2019-03-04T02:03:17.095Z,3.50
2019-03-04T02:05:46.948Z,3.57
2019-03-04T02:08:16.758Z,3.63
2019-03-04T02:10:46.341Z,4.07
2019-03-04T02:13:15.925Z,4.20
2019-03-04T02:15:45.609Z,4.30
2019-03-04T02:18:15.233Z,4.07
2019-03-04T02:20:44.885Z,4.27
2019-03-04T02:23:14.479Z,4.27
2019-03-04T02:25:51.612Z,4.57
2019-03-04T02:28:21.215Z,4.17
2019-03-04T02:30:51.691Z,4.13
2019-03-04T02:33:21.274Z,4.10
2019-03-04T02:35:50.930Z,3.77
2019-03-04T02:38:20.613Z,3.27
2019-03-04T02:40:50.299Z,3.73
2019-03-04T02:43:19.898Z,3.37
2019-03-04T02:45:49.504Z,2.90
2019-03-04T02:48:19.085Z,3.43
2019-03-04T02:50:48.705Z,3.37
2019-03-04T02:53:18.293Z,2.93
2019-03-04T02:55:47.909Z,3.30
2019-03-04T02:58:17.517Z,3.80
2019-03-04T03:00:47.204Z,3.23
2019-03-04T03:03:16.786Z,3.13
2019-03-04T03:05:46.467Z,3.30
2019-03-04T03:08:16.077Z,3.30
2019-03-04T03:10:45.666Z,3.37
2019-03-04T03:13:15.282Z,3.37
2019-03-04T03:15:44.868Z,3.20
2019-03-04T03:18:14.478Z,3.23
2019-03-04T03:20:44.066Z,3.83
2019-03-04T03:23:13.677Z,3.20
2019-03-04T03:25:43.296Z,4.07
2019-03-04T03:28:12.884Z,3.30
2019-03-04T03:30:42.493Z,4.87
2019-03-04T03:33:12.078Z,3.77
2019-03-04T03:35:41.692Z,4.00
2019-03-04T03:38:11.303Z,4.50
2019-03-04T03:40:41.058Z,3.80
2019-03-04T03:43:10.853Z,4.43
2019-03-04T03:45:40.453Z,3.70
2019-03-04T03:48:10.071Z,3.67
2019-03-04T03:50:39.686Z,4.23
2019-03-04T03:53:09.273Z,4.07
2019-03-04T03:55:38.888Z,3.80
2019-03-04T03:58:08.478Z,4.43
2019-03-04T04:00:38.160Z,3.80
2019-03-04T04:03:07.741Z,3.97
2019-03-04T04:05:37.393Z,3.83
2019-03-04T04:08:07.148Z,4.00
2019-03-04T04:10:36.760Z,4.10
2019-03-04T04:13:06.367Z,4.17
2019-03-04T04:15:35.982Z,4.37
2019-03-04T04:18:05.633Z,4.23
2019-03-04T04:20:35.244Z,3.77
2019-03-04T04:23:04.859Z,4.30
2019-03-04T04:25:34.511Z,4.10
2019-03-04T04:28:05.772Z,3.93
2019-03-04T04:30:36.988Z,4.30
2019-03-04T04:33:06.612Z,4.60
2019-03-04T04:35:36.198Z,4.20
2019-03-04T04:38:05.855Z,4.10
2019-03-04T04:40:35.472Z,4.27
2019-03-04T04:43:05.251Z,3.67
2019-03-04T04:45:34.841Z,3.80
2019-03-04T04:48:04.613Z,4.13
2019-03-04T04:50:34.633Z,4.40
2019-03-04T04:53:04.289Z,4.23
2019-03-04T04:55:33.903Z,4.23
2019-03-04T04:58:03.557Z,4.47
2019-03-04T05:00:33.184Z,4.17
2019-03-04T05:03:02.846Z,4.13
2019-03-04T05:05:32.536Z,4.37
2019-03-04T05:08:02.120Z,4.10
2019-03-04T05:10:31.734Z,4.23
2019-03-04T05:13:01.390Z,4.50
2019-03-04T05:15:31.085Z,4.33
2019-03-04T05:18:00.671Z,4.53
2019-03-04T05:20:30.347Z,4.20
2019-03-04T05:22:59.959Z,4.07
2019-03-04T05:25:29.546Z,4.43
2019-03-04T05:27:59.169Z,5.10
2019-03-04T05:30:29.226Z,5.00
2019-03-04T05:32:58.817Z,4.43
2019-03-04T05:35:28.516Z,4.90
2019-03-04T05:37:58.107Z,5.33
2019-03-04T05:40:27.697Z,4.33
2019-03-04T05:42:57.310Z,4.63
2019-03-04T05:45:26.903Z,4.70
2019-03-04T05:47:56.520Z,4.80
2019-03-04T05:50:27.042Z,5.70
2019-03-04T05:52:56.732Z,4.87
2019-03-04T05:55:26.321Z,4.87
2019-03-04T05:57:56.002Z,4.63
2019-03-04T06:00:30.310Z,4.37
2019-03-04T06:03:04.447Z,4.53
2019-03-04T06:05:34.089Z,5.27
2019-03-04T06:08:05.368Z,4.80
2019-03-04T06:10:34.984Z,4.83
2019-03-04T06:13:04.711Z,4.80
2019-03-04T06:15:34.466Z,4.90
2019-03-04T06:18:04.200Z,4.60
2019-03-04T06:20:33.952Z,4.50
2019-03-04T06:23:03.616Z,4.60
2019-03-04T06:25:33.228Z,4.47
2019-03-04T06:28:02.851Z,5.10
2019-03-04T06:30:32.879Z,4.97
2019-03-04T06:33:02.565Z,4.20
2019-03-04T06:35:32.381Z,4.33
2019-03-04T06:38:02.113Z,4.73
2019-03-04T06:40:31.725Z,4.93
2019-03-04T06:43:01.315Z,4.63
2019-03-04T06:45:30.937Z,5.00
2019-03-04T06:48:00.587Z,5.10
2019-03-04T06:50:54.612Z,4.47
2019-03-04T06:53:40.625Z,5.10
2019-03-04T06:56:29.989Z,5.60
2019-03-04T06:59:15.256Z,5.13
2019-03-04T07:01:58.457Z,5.07
2019-03-04T07:05:06.096Z,4.77
2019-03-04T07:07:35.688Z,5.53
2019-03-04T07:10:08.881Z,5.43
2019-03-04T07:12:38.480Z,5.10
2019-03-04T07:15:09.608Z,4.97
2019-03-04T07:17:39.198Z,5.80
2019-03-04T07:20:20.703Z,3.90
2019-03-04T07:22:50.291Z,4.73
2019-03-04T07:25:19.909Z,4.50
2019-03-04T07:27:49.499Z,4.63
2019-03-04T07:30:22.501Z,4.33
2019-03-04T07:32:52.097Z,6.47
2019-03-04T07:35:21.683Z,6.67
2019-03-04T07:38:01.414Z,7.10
2019-03-04T07:40:31.017Z,7.70
2019-03-04T07:43:02.409Z,6.30
2019-03-04T07:45:32.090Z,7.23
2019-03-04T07:48:01.712Z,6.60
2019-03-04T07:50:31.310Z,6.30
2019-03-04T07:53:00.936Z,5.93
2019-03-04T07:55:30.568Z,4.97
2019-03-04T07:58:00.208Z,6.43
2019-03-04T08:00:29.832Z,5.47
2019-03-04T08:02:59.458Z,5.73
2019-03-04T08:05:29.087Z,6.80
2019-03-04T08:08:02.893Z,6.77
2019-03-04T08:11:05.409Z,6.03
2019-03-04T08:13:48.460Z,6.23
2019-03-04T08:16:18.082Z,5.73
2019-03-04T08:18:47.749Z,5.07
2019-03-04T08:21:17.372Z,4.90
2019-03-04T08:23:47.008Z,5.07
2019-03-04T08:26:16.669Z,5.50
2019-03-04T08:28:46.262Z,5.83
2019-03-04T08:31:16.095Z,6.53
2019-03-04T08:33:45.697Z,6.27
2019-03-04T08:36:15.323Z,6.17
2019-03-04T08:38:44.924Z,6.43
2019-03-04T08:41:14.785Z,5.90
2019-03-04T08:43:44.399Z,8.77
2019-03-04T08:46:14.031Z,9.97
2019-03-04T08:48:43.651Z,10.30
2019-03-04T08:51:13.323Z,10.77
2019-03-04T08:53:42.953Z,10.93
2019-03-04T08:56:12.584Z,11.43
2019-03-04T08:58:42.249Z,12.80
2019-03-04T09:01:12.213Z,12.10
2019-03-04T09:03:41.866Z,13.63
2019-03-04T09:06:11.487Z,14.27
2019-03-04T09:08:41.113Z,13.20
2019-03-04T09:11:10.809Z,14.00
2019-03-04T09:13:40.443Z,14.00
2019-03-04T09:16:10.068Z,13.73
2019-03-04T09:18:39.667Z,14.57
2019-03-04T09:21:09.292Z,12.17
2019-03-04T09:23:38.893Z,12.23
2019-03-04T09:26:11.937Z,13.93
2019-03-04T09:28:41.626Z,12.00
2019-03-04T09:31:11.245Z,12.03
2019-03-04T09:33:40.875Z,12.40
2019-03-04T09:36:10.510Z,15.90
2019-03-04T09:38:40.116Z,14.43
2019-03-04T09:41:09.743Z,14.97
2019-03-04T09:43:39.350Z,13.10
2019-03-04T09:46:09.051Z,15.17
2019-03-04T09:48:38.651Z,18.87
2019-03-04T09:51:08.382Z,17.93
2019-03-04T09:53:39.757Z,19.00
2019-03-04T09:56:09.545Z,19.73
2019-03-04T09:58:39.219Z,19.77
2019-03-04T10:01:16.148Z,18.43
2019-03-04T10:03:59.189Z,18.23
2019-03-04T10:06:53.995Z,19.20
2019-03-04T10:09:48.865Z,20.43
2019-03-04T10:12:37.532Z,18.83
2019-03-04T10:15:47.553Z,19.73
2019-03-04T10:18:39.630Z,19.33
2019-03-04T10:21:31.414Z,18.53
2019-03-04T10:24:20.239Z,19.60
2019-03-04T10:27:25.446Z,18.70
2019-03-04T10:30:20.133Z,19.73
2019-03-04T10:33:15.185Z,20.23
2019-03-04T10:35:57.841Z,18.93
2019-03-04T10:38:37.424Z,19.63
2019-03-04T10:41:26.377Z,19.03
2019-03-04T10:44:38.117Z,19.60
2019-03-04T10:47:07.801Z,20.03
2019-03-04T10:49:38.164Z,20.50
2019-03-04T10:52:07.771Z,20.70
2019-03-04T10:54:37.396Z,22.50
2019-03-04T10:57:07.069Z,20.83
2019-03-04T10:59:36.694Z,20.10
2019-03-04T11:02:06.501Z,20.13
2019-03-04T11:04:36.196Z,20.77
2019-03-04T11:07:05.937Z,18.90
2019-03-04T11:09:35.573Z,21.37
2019-03-04T11:12:05.317Z,21.83
2019-03-04T11:14:34.950Z,20.87
2019-03-04T11:17:04.646Z,21.23
2019-03-04T11:19:34.284Z,20.77
2019-03-04T11:22:04.055Z,19.90
2019-03-04T11:24:33.722Z,18.63
2019-03-04T11:27:03.492Z,17.50
2019-03-04T11:29:33.116Z,18.97
2019-03-04T11:32:03.388Z,19.97
2019-03-04T11:34:33.018Z,19.07
2019-03-04T11:37:02.623Z,19.57
2019-03-04T11:39:45.832Z,19.53
2019-03-04T11:42:15.564Z,19.93
2019-03-04T11:44:45.189Z,20.63
2019-03-04T11:47:14.798Z,19.33
2019-03-04T11:49:44.430Z,18.47
2019-03-04T11:52:14.034Z,19.73
2019-03-04T11:54:43.731Z,19.67
2019-03-04T11:57:13.427Z,18.70
2019-03-04T11:59:43.026Z,20.17
2019-03-04T12:02:14.376Z,19.90
2019-03-04T12:04:44.045Z,19.70
2019-03-04T12:07:13.808Z,19.87
2019-03-04T12:09:43.570Z,20.77
2019-03-04T12:12:13.255Z,19.83
2019-03-04T12:14:42.926Z,22.07
2019-03-04T12:17:12.666Z,17.73
2019-03-04T12:19:42.364Z,18.07
2019-03-04T12:22:12.058Z,19.33
2019-03-04T12:24:41.727Z,17.47
2019-03-04T12:27:11.517Z,17.60
2019-03-04T12:29:41.254Z,17.87
2019-03-04T12:32:12.493Z,15.83
2019-03-04T12:34:42.185Z,18.00
2019-03-04T12:37:11.784Z,17.63
2019-03-04T12:39:41.407Z,16.83
2019-03-04T12:42:11.010Z,16.73
2019-03-04T12:44:40.661Z,16.60
2019-03-04T12:47:10.258Z,16.33
2019-03-04T12:49:39.859Z,15.77
2019-03-04T12:52:09.482Z,15.80
2019-03-04T12:54:39.102Z,15.40
2019-03-04T12:57:08.779Z,15.83
2019-03-04T12:59:38.381Z,14.53
2019-03-04T13:02:08.518Z,16.13
2019-03-04T13:04:38.184Z,15.00
2019-03-04T13:07:07.843Z,14.37
2019-03-04T13:09:37.511Z,15.00
2019-03-04T13:12:07.622Z,14.80
2019-03-04T13:14:37.275Z,14.20
2019-03-04T13:17:06.944Z,13.67
2019-03-04T13:19:36.543Z,13.87
2019-03-04T13:22:08.739Z,14.57
2019-03-04T13:24:37.732Z,14.53
2019-03-04T13:27:07.432Z,13.40
2019-03-04T13:29:37.135Z,13.50
2019-03-04T13:32:06.911Z,14.13
2019-03-04T13:34:36.598Z,13.77
2019-03-04T13:37:06.338Z,14.90
2019-03-04T13:39:36.035Z,14.27
2019-03-04T13:42:05.704Z,13.83
2019-03-04T13:44:35.410Z,13.70
2019-03-04T13:47:05.140Z,13.73
2019-03-04T13:49:34.829Z,14.33
2019-03-04T13:52:04.526Z,14.73
2019-03-04T13:54:34.124Z,13.87
2019-03-04T13:57:03.822Z,13.30
2019-03-04T13:59:33.462Z,13.90
2019-03-04T14:02:03.309Z,13.17
2019-03-04T14:04:33.007Z,12.73
2019-03-04T14:07:02.638Z,11.67
2019-03-04T14:09:32.240Z,11.37
2019-03-04T14:12:01.879Z,11.00
2019-03-04T14:14:31.476Z,11.60
2019-03-04T14:17:01.411Z,10.73
2019-03-04T14:19:31.013Z,10.57
2019-03-04T14:22:00.628Z,11.37
2019-03-04T14:24:30.259Z,11.57
2019-03-04T14:26:59.969Z,11.87
2019-03-04T14:29:29.572Z,11.53
2019-03-04T14:31:59.168Z,10.40
2019-03-04T14:34:28.866Z,11.80
2019-03-04T14:36:58.469Z,10.37
2019-03-04T14:39:28.099Z,11.87
2019-03-04T14:41:57.709Z,11.37
2019-03-04T14:44:27.315Z,11.10
2019-03-04T14:46:57.214Z,10.50
2019-03-04T14:49:26.847Z,9.70
2019-03-04T14:51:56.477Z,10.20
2019-03-04T14:54:26.104Z,9.20
2019-03-04T14:56:55.703Z,8.90
2019-03-04T14:59:25.328Z,8.50
2019-03-04T15:01:54.924Z,8.97
2019-03-04T15:04:24.548Z,8.43
2019-03-04T15:06:54.172Z,8.97
2019-03-04T15:09:24.032Z,9.00
2019-03-04T15:11:53.666Z,9.37
2019-03-04T15:14:23.288Z,9.47
2019-03-04T15:17:02.753Z,8.23
2019-03-04T15:19:24.219Z,8.73
2019-03-04T15:21:53.844Z,8.60
2019-03-04T15:24:23.468Z,8.00
2019-03-04T15:26:53.136Z,7.87
2019-03-04T15:29:22.835Z,7.43
2019-03-04T15:31:52.432Z,6.77
2019-03-04T15:34:22.062Z,8.00
2019-03-04T15:36:51.862Z,7.47
2019-03-04T15:39:23.142Z,8.10
2019-03-04T15:41:52.867Z,7.90
2019-03-04T15:44:22.500Z,7.10
2019-03-04T15:46:52.104Z,7.00
2019-03-04T15:49:21.703Z,7.30
2019-03-04T15:51:51.458Z,7.53
2019-03-04T15:54:21.071Z,7.23
2019-03-04T15:56:50.694Z,7.93
2019-03-04T15:59:20.394Z,7.03
2019-03-04T16:01:49.987Z,7.77
2019-03-04T16:04:19.612Z,7.33
2019-03-04T16:06:49.281Z,6.57
2019-03-04T16:09:20.719Z,7.53
2019-03-04T16:11:50.473Z,7.47
2019-03-04T16:14:20.110Z,7.40
2019-03-04T16:16:49.709Z,7.00
2019-03-04T16:19:19.384Z,6.93
2019-03-04T16:21:49.068Z,7.20
2019-03-04T16:24:18.706Z,6.40
2019-03-04T16:26:48.301Z,6.50
2019-03-04T16:29:17.905Z,7.20
2019-03-04T16:31:47.531Z,6.73
2019-03-04T16:34:17.131Z,6.57
2019-03-04T16:36:46.758Z,6.33
2019-03-04T16:39:18.308Z,7.47
2019-03-04T16:41:47.949Z,7.57
2019-03-04T16:44:17.548Z,7.77
2019-03-04T16:46:47.217Z,6.83
2019-03-04T16:49:16.913Z,7.07
2019-03-04T16:51:46.576Z,6.40
2019-03-04T16:54:16.206Z,6.77
2019-03-04T16:56:45.809Z,10.30
2019-03-04T16:59:15.427Z,8.57
2019-03-04T17:01:45.028Z,8.60
2019-03-04T17:04:14.652Z,7.37
2019-03-04T17:06:44.516Z,7.50
2019-03-04T17:09:18.666Z,8.00
2019-03-04T17:11:48.334Z,8.40
2019-03-04T17:14:18.025Z,7.07
2019-03-04T17:16:47.656Z,8.20
2019-03-04T17:19:17.339Z,7.20
2019-03-04T17:21:47.010Z,7.67
2019-03-04T17:24:16.717Z,8.53
2019-03-04T17:26:46.388Z,7.80
2019-03-04T17:29:16.010Z,7.83
2019-03-04T17:31:45.707Z,8.40
2019-03-04T17:34:15.326Z,7.23
2019-03-04T17:36:45.023Z,8.23
2019-03-04T17:39:15.361Z,7.53
2019-03-04T17:41:44.987Z,8.90
2019-03-04T17:44:19.171Z,7.37
2019-03-04T17:46:48.822Z,7.70
2019-03-04T17:49:18.590Z,7.43
2019-03-04T17:51:48.182Z,7.70
2019-03-04T17:54:17.810Z,7.87
2019-03-04T17:56:47.433Z,8.20
2019-03-04T17:59:17.025Z,8.10
2019-03-04T18:01:46.720Z,7.90
2019-03-04T18:04:16.370Z,9.07
2019-03-04T18:06:46.089Z,8.10
2019-03-04T18:09:15.683Z,8.33
2019-03-04T18:11:45.314Z,8.17
2019-03-04T18:14:14.913Z,7.93
2019-03-04T18:16:44.550Z,8.37
2019-03-04T18:19:14.257Z,8.10
2019-03-04T18:21:43.858Z,8.87
2019-03-04T18:24:13.532Z,9.40
2019-03-04T18:26:45.763Z,9.00
2019-03-04T18:29:28.554Z,8.97
2019-03-04T18:32:28.542Z,8.70
2019-03-04T18:35:25.353Z,7.87
2019-03-04T18:38:17.721Z,6.00
2019-03-04T18:41:20.287Z,1.70
2019-03-04T18:44:22.848Z,1.20
2019-03-04T18:47:27.095Z,0.70
2019-03-04T18:49:56.696Z,0.90
2019-03-04T18:52:26.277Z,0.80
2019-03-04T18:54:55.892Z,0.90
2019-03-04T18:57:25.587Z,1.33
2019-03-04T18:59:55.204Z,1.40
2019-03-04T19:02:24.868Z,0.70
2019-03-04T19:04:54.557Z,0.60
2019-03-04T19:07:24.413Z,0.97
2019-03-04T19:09:54.028Z,0.80
2019-03-04T19:12:23.616Z,0.60
2019-03-04T19:14:53.223Z,1.40
2019-03-04T19:17:22.838Z,0.63
2019-03-04T19:19:52.431Z,0.93
2019-03-04T19:22:22.113Z,1.00
2019-03-04T19:24:51.737Z,0.87
2019-03-04T19:27:21.324Z,0.70
2019-03-04T19:29:50.914Z,1.00
2019-03-04T19:32:20.589Z,0.93
2019-03-04T19:34:50.188Z,1.07
2019-03-04T19:37:19.798Z,0.90
2019-03-04T19:39:49.389Z,0.67
2019-03-04T19:42:18.976Z,0.60
2019-03-04T19:44:48.667Z,1.30
2019-03-04T19:47:18.286Z,0.80
2019-03-04T19:49:47.938Z,0.80
2019-03-04T19:52:17.553Z,0.70
2019-03-04T19:54:47.209Z,0.70
2019-03-04T19:57:16.819Z,1.60
2019-03-04T19:59:46.480Z,3.00
2019-03-04T20:02:17.708Z,2.73
2019-03-04T20:04:47.404Z,3.57
2019-03-04T20:07:17.159Z,2.37
2019-03-04T20:09:46.776Z,3.60
2019-03-04T20:12:16.398Z,3.73
2019-03-04T20:14:45.988Z,1.83
2019-03-04T20:17:15.568Z,1.70
2019-03-04T20:19:45.257Z,1.70
2019-03-04T20:22:15.145Z,2.40
2019-03-04T20:24:44.733Z,2.60
2019-03-04T20:27:14.459Z,1.10
2019-03-04T20:29:44.068Z,0.50
2019-03-04T20:32:13.673Z,0.50
2019-03-04T20:34:43.257Z,0.50
2019-03-04T20:37:13.010Z,0.40
2019-03-04T20:39:42.622Z,0.30
2019-03-04T20:42:12.233Z,0.40
2019-03-04T20:44:41.846Z,0.30
2019-03-04T20:47:11.437Z,0.30
2019-03-04T20:49:41.044Z,0.40
2019-03-04T20:52:10.791Z,0.30
2019-03-04T20:54:40.380Z,0.33
2019-03-04T20:57:10.068Z,0.40
2019-03-04T20:59:39.662Z,0.40
2019-03-04T21:02:09.444Z,0.30
2019-03-04T21:04:39.030Z,0.70
2019-03-04T21:07:08.814Z,0.80
2019-03-04T21:09:38.744Z,0.73
2019-03-04T21:12:08.401Z,0.70
2019-03-04T21:14:38.060Z,0.87
2019-03-04T21:17:07.815Z,0.63
2019-03-04T21:19:37.607Z,0.87
2019-03-04T21:22:07.359Z,1.10
2019-03-04T21:24:37.117Z,0.70
2019-03-04T21:27:06.850Z,0.60
2019-03-04T21:30:02.258Z,0.70
2019-03-04T21:32:36.495Z,0.67
2019-03-04T21:35:51.522Z,0.70
2019-03-04T21:38:24.031Z,0.80
2019-03-04T21:41:06.680Z,0.80
2019-03-04T21:43:40.851Z,1.00
2019-03-04T21:46:34.379Z,0.70
2019-03-04T21:49:07.676Z,0.60
2019-03-04T21:51:50.632Z,0.50
2019-03-04T21:54:20.316Z,0.60
2019-03-04T21:57:00.256Z,0.70
2019-03-04T21:59:29.899Z,0.73
2019-03-04T22:02:09.492Z,0.70
2019-03-04T22:04:40.217Z,0.50
2019-03-04T22:07:09.955Z,1.90
2019-03-04T22:09:39.804Z,2.40
2019-03-04T22:12:13.345Z,1.00
2019-03-04T22:14:43.384Z,1.67
2019-03-04T22:17:13.154Z,5.10
2019-03-04T22:19:42.897Z,4.77
2019-03-04T22:22:12.572Z,4.03
2019-03-04T22:24:42.162Z,5.07
2019-03-04T22:27:11.844Z,3.20
2019-03-04T22:29:41.478Z,3.20
2019-03-04T22:32:11.122Z,2.57
2019-03-04T22:34:40.722Z,3.47
2019-03-04T22:37:10.383Z,4.93
2019-03-04T22:39:40.001Z,4.03
2019-03-04T22:42:09.586Z,3.80
2019-03-04T22:44:39.205Z,3.60
2019-03-04T22:47:08.797Z,4.57
2019-03-04T22:49:38.407Z,3.97
2019-03-04T22:52:08.085Z,4.23
2019-03-04T22:54:37.818Z,3.97
2019-03-04T22:57:07.501Z,4.20
2019-03-04T22:59:37.106Z,4.27
2019-03-04T23:02:07.206Z,3.63
2019-03-04T23:04:36.821Z,2.00
2019-03-04T23:07:09.114Z,3.00
2019-03-04T23:09:59.471Z,2.63
2019-03-04T23:12:45.436Z,2.10
2019-03-04T23:15:22.467Z,1.70
2019-03-04T23:17:52.165Z,2.00
2019-03-04T23:20:21.781Z,1.37
2019-03-04T23:22:51.394Z,2.87
2019-03-04T23:25:20.978Z,1.53
2019-03-04T23:27:50.602Z,1.50
2019-03-04T23:30:20.189Z,1.30
2019-03-04T23:32:49.775Z,1.40
2019-03-04T23:35:19.457Z,0.90
2019-03-04T23:37:49.113Z,0.70
2019-03-04T23:40:18.734Z,0.97
2019-03-04T23:42:48.317Z,0.77
2019-03-04T23:45:17.933Z,1.10
2019-03-04T23:47:47.522Z,0.90
2019-03-04T23:50:26.672Z,0.90
2019-03-04T23:52:56.257Z,0.73
2019-03-04T23:55:25.916Z,0.90
2019-03-04T23:57:55.524Z,1.17
